sensor_id;sensor_type;location;lat;lon;timestamp;pressure;altitude;pressure_sealevel;temperature;humidity
27980;BME280;15315;50.836;4.430;2023-12-20T00:02:19;101299.03;;;9.28;100.00
27980;BME280;15315;50.836;4.430;2023-12-20T00:12:19;101321.88;;;9.36;100.00
27980;BME280;15315;50.836;4.430;2023-12-20T00:22:20;101327.56;;;9.93;100.00
27980;BME280;15315;50.836;4.430;2023-12-20T00:32:20;101305.53;;;9.39;100.00
27980;BME280;15315;50.836;4.430;2023-12-20T00:42:21;101305.63;;;9.84;100.00
27980;BME280;15315;50.836;4.430;2023-12-20T00:52:21;101301.69;;;9.90;100.00
27980;BME280;15315;50.836;4.430;2023-12-20T01:02:22;101304.44;;;10.04;100.00
27980;BME280;15315;50.836;4.430;2023-12-20T01:12:23;101310.91;;;9.70;100.00
27980;BME280;15315;50.836;4.430;2023-12-20T01:22:23;101321.25;;;9.47;100.00
27980;BME280;15315;50.836;4.430;2023-12-20T01:32:23;101325.03;;;9.11;100.00
27980;BME280;15315;50.836;4.430;2023-12-20T01:42:25;101323.06;;;9.62;100.00
27980;BME280;15315;50.836;4.430;2023-12-20T01:52:26;101348.28;;;9.61;100.00
27980;BME280;15315;50.836;4.430;2023-12-20T02:02:28;101345.47;;;9.62;100.00
27980;BME280;15315;50.836;4.430;2023-12-20T02:12:28;101334.53;;;9.65;100.00
27980;BME280;15315;50.836;4.430;2023-12-20T02:22:29;101341.75;;;9.65;100.00
27980;BME280;15315;50.836;4.430;2023-12-20T02:32:30;101330.53;;;9.72;100.00
27980;BME280;15315;50.836;4.430;2023-12-20T02:42:31;101331.81;;;9.34;99.27
27980;BME280;15315;50.836;4.430;2023-12-20T02:52:31;101348.44;;;9.58;100.00
27980;BME280;15315;50.836;4.430;2023-12-20T03:02:32;101346.50;;;9.44;97.60
27980;BME280;15315;50.836;4.430;2023-12-20T03:12:33;101347.13;;;9.49;98.13
27980;BME280;15315;50.836;4.430;2023-12-20T03:22:33;101326.84;;;10.20;98.36
27980;BME280;15315;50.836;4.430;2023-12-20T03:32:34;101320.34;;;10.09;99.18
27980;BME280;15315;50.836;4.430;2023-12-20T03:42:35;101332.25;;;10.05;93.59
27980;BME280;15315;50.836;4.430;2023-12-20T03:52:36;101333.50;;;10.29;93.57
27980;BME280;15315;50.836;4.430;2023-12-20T04:02:41;101337.53;;;10.37;93.60
27980;BME280;15315;50.836;4.430;2023-12-20T04:12:41;101331.38;;;10.20;90.51
27980;BME280;15315;50.836;4.430;2023-12-20T04:22:41;101334.81;;;10.37;88.98
27980;BME280;15315;50.836;4.430;2023-12-20T04:32:42;101345.25;;;10.43;88.98
27980;BME280;15315;50.836;4.430;2023-12-20T04:42:44;101335.63;;;10.08;90.52
27980;BME280;15315;50.836;4.430;2023-12-20T04:52:44;101345.13;;;9.53;89.63
27980;BME280;15315;50.836;4.430;2023-12-20T05:02:44;101345.59;;;10.37;90.54
27980;BME280;15315;50.836;4.430;2023-12-20T05:12:45;101343.34;;;10.30;88.67
27980;BME280;15315;50.836;4.430;2023-12-20T05:22:46;101339.47;;;10.04;89.40
27980;BME280;15315;50.836;4.430;2023-12-20T05:32:47;101335.66;;;9.93;89.10
27980;BME280;15315;50.836;4.430;2023-12-20T05:42:47;101336.63;;;9.92;89.60
27980;BME280;15315;50.836;4.430;2023-12-20T05:52:48;101346.97;;;9.68;89.99
27980;BME280;15315;50.836;4.430;2023-12-20T06:02:48;101350.88;;;9.78;90.79
27980;BME280;15315;50.836;4.430;2023-12-20T06:12:49;101353.81;;;9.73;90.87
27980;BME280;15315;50.836;4.430;2023-12-20T06:22:51;101378.53;;;9.33;90.93
27980;BME280;15315;50.836;4.430;2023-12-20T06:32:51;101372.13;;;9.98;86.41
27980;BME280;15315;50.836;4.430;2023-12-20T06:42:54;101379.00;;;10.35;89.96
27980;BME280;15315;50.836;4.430;2023-12-20T06:52:54;101369.00;;;9.90;88.54
27980;BME280;15315;50.836;4.430;2023-12-20T07:02:55;101353.13;;;9.70;87.74
27980;BME280;15315;50.836;4.430;2023-12-20T07:12:55;101350.50;;;9.37;88.28
27980;BME280;15315;50.836;4.430;2023-12-20T07:22:55;101354.69;;;9.74;86.80
27980;BME280;15315;50.836;4.430;2023-12-20T07:32:56;101357.91;;;9.65;89.57
27980;BME280;15315;50.836;4.430;2023-12-20T07:42:56;101349.56;;;8.88;90.22
27980;BME280;15315;50.836;4.430;2023-12-20T07:52:58;101344.69;;;8.79;90.61
27980;BME280;15315;50.836;4.430;2023-12-20T08:03:00;101369.03;;;8.76;90.15
27980;BME280;15315;50.836;4.430;2023-12-20T08:13:03;101378.91;;;8.76;89.02
27980;BME280;15315;50.836;4.430;2023-12-20T08:23:04;101377.75;;;9.47;89.03
27980;BME280;15315;50.836;4.430;2023-12-20T08:33:04;101377.59;;;8.67;86.60
27980;BME280;15315;50.836;4.430;2023-12-20T08:43:05;101382.16;;;9.32;87.18
27980;BME280;15315;50.836;4.430;2023-12-20T08:53:05;101371.50;;;9.31;84.10
27980;BME280;15315;50.836;4.430;2023-12-20T09:03:06;101350.25;;;9.57;83.74
27980;BME280;15315;50.836;4.430;2023-12-20T09:13:06;101357.22;;;9.61;83.70
27980;BME280;15315;50.836;4.430;2023-12-20T09:23:06;101356.81;;;9.20;85.38
27980;BME280;15315;50.836;4.430;2023-12-20T09:33:07;101351.56;;;9.50;86.33
27980;BME280;15315;50.836;4.430;2023-12-20T09:43:11;101359.66;;;9.66;81.85
27980;BME280;15315;50.836;4.430;2023-12-20T09:53:15;101354.19;;;10.44;82.04
27980;BME280;15315;50.836;4.430;2023-12-20T10:03:16;101341.09;;;10.22;81.67
27980;BME280;15315;50.836;4.430;2023-12-20T10:13:17;101355.38;;;10.98;77.51
27980;BME280;15315;50.836;4.430;2023-12-20T10:23:18;101346.22;;;10.86;78.41
27980;BME280;15315;50.836;4.430;2023-12-20T10:33:28;101339.69;;;11.47;75.96
27980;BME280;15315;50.836;4.430;2023-12-20T10:43:30;101328.69;;;10.93;76.56
27980;BME280;15315;50.836;4.430;2023-12-20T10:53:32;101303.78;;;11.31;75.84
27980;BME280;15315;50.836;4.430;2023-12-20T11:03:36;101294.69;;;12.01;75.04
27980;BME280;15315;50.836;4.430;2023-12-20T11:13:52;101301.09;;;11.59;74.78
27980;BME280;15315;50.836;4.430;2023-12-20T11:23:55;101288.75;;;11.41;75.38
27980;BME280;15315;50.836;4.430;2023-12-20T11:34:13;101279.16;;;10.94;83.01
27980;BME280;15315;50.836;4.430;2023-12-20T11:44:14;101260.09;;;11.38;83.80
27980;BME280;15315;50.836;4.430;2023-12-20T11:54:17;101255.22;;;11.98;81.17
27980;BME280;15315;50.836;4.430;2023-12-20T12:04:18;101251.78;;;11.96;80.18
27980;BME280;15315;50.836;4.430;2023-12-20T12:14:18;101237.81;;;12.54;77.72
27980;BME280;15315;50.836;4.430;2023-12-20T12:24:20;101213.56;;;12.40;76.04
27980;BME280;15315;50.836;4.430;2023-12-20T12:34:23;101204.09;;;12.08;77.68
27980;BME280;15315;50.836;4.430;2023-12-20T12:44:24;101212.91;;;12.24;77.33
27980;BME280;15315;50.836;4.430;2023-12-20T12:54:25;101200.44;;;11.96;79.11
27980;BME280;15315;50.836;4.430;2023-12-20T13:04:25;101177.31;;;12.17;80.29
27980;BME280;15315;50.836;4.430;2023-12-20T13:14:26;101144.56;;;12.22;79.51
27980;BME280;15315;50.836;4.430;2023-12-20T13:24:27;101147.22;;;11.84;82.46
27980;BME280;15315;50.836;4.430;2023-12-20T13:34:27;101130.91;;;12.49;79.50
27980;BME280;15315;50.836;4.430;2023-12-20T13:44:28;101106.81;;;12.20;78.91
27980;BME280;15315;50.836;4.430;2023-12-20T13:54:28;101097.38;;;13.00;76.39
27980;BME280;15315;50.836;4.430;2023-12-20T14:04:28;101090.47;;;12.60;77.25
27980;BME280;15315;50.836;4.430;2023-12-20T14:14:29;101063.47;;;12.83;77.05
27980;BME280;15315;50.836;4.430;2023-12-20T14:24:30;101050.25;;;12.17;78.66
27980;BME280;15315;50.836;4.430;2023-12-20T14:34:30;101053.75;;;12.19;78.46
27980;BME280;15315;50.836;4.430;2023-12-20T14:44:30;101057.06;;;12.84;77.08
27980;BME280;15315;50.836;4.430;2023-12-20T14:54:31;101055.06;;;12.75;77.41
27980;BME280;15315;50.836;4.430;2023-12-20T15:04:31;101037.09;;;13.22;75.84
27980;BME280;15315;50.836;4.430;2023-12-20T15:14:32;101031.50;;;13.12;76.11
27980;BME280;15315;50.836;4.430;2023-12-20T15:24:32;101028.53;;;12.80;78.26
27980;BME280;15315;50.836;4.430;2023-12-20T15:34:38;101030.41;;;12.67;77.37
27980;BME280;15315;50.836;4.430;2023-12-20T15:44:39;101069.34;;;13.01;76.98
27980;BME280;15315;50.836;4.430;2023-12-20T15:54:40;101070.41;;;12.75;76.63
27980;BME280;15315;50.836;4.430;2023-12-20T16:04:41;101079.59;;;12.85;77.88
27980;BME280;15315;50.836;4.430;2023-12-20T16:14:42;101080.00;;;12.55;78.25
27980;BME280;15315;50.836;4.430;2023-12-20T16:24:42;101067.00;;;12.84;78.61
27980;BME280;15315;50.836;4.430;2023-12-20T16:34:42;101039.63;;;13.12;77.83
27980;BME280;15315;50.836;4.430;2023-12-20T16:44:44;101008.75;;;13.15;78.20
27980;BME280;15315;50.836;4.430;2023-12-20T16:54:45;100994.09;;;12.82;81.28
27980;BME280;15315;50.836;4.430;2023-12-20T17:04:45;100983.97;;;13.32;79.07
27980;BME280;15315;50.836;4.430;2023-12-20T17:14:46;100970.41;;;12.97;81.87
27980;BME280;15315;50.836;4.430;2023-12-20T17:24:47;100937.03;;;12.85;84.04
27980;BME280;15315;50.836;4.430;2023-12-20T17:34:48;100922.78;;;12.94;84.47
27980;BME280;15315;50.836;4.430;2023-12-20T17:44:48;100930.31;;;12.91;82.83
27980;BME280;15315;50.836;4.430;2023-12-20T17:54:49;100913.94;;;12.21;84.92
27980;BME280;15315;50.836;4.430;2023-12-20T18:04:49;100889.44;;;12.94;82.17
27980;BME280;15315;50.836;4.430;2023-12-20T18:14:49;100892.66;;;12.17;84.80
27980;BME280;15315;50.836;4.430;2023-12-20T18:24:52;100858.25;;;12.66;83.40
27980;BME280;15315;50.836;4.430;2023-12-20T18:34:54;100846.38;;;12.45;84.45
27980;BME280;15315;50.836;4.430;2023-12-20T18:44:55;100837.09;;;12.36;83.48
27980;BME280;15315;50.836;4.430;2023-12-20T18:54:56;100841.44;;;12.74;82.55
27980;BME280;15315;50.836;4.430;2023-12-20T19:04:56;100837.72;;;13.21;80.60
27980;BME280;15315;50.836;4.430;2023-12-20T19:14:56;100839.13;;;12.80;82.39
27980;BME280;15315;50.836;4.430;2023-12-20T19:24:57;100841.66;;;12.60;83.64
27980;BME280;15315;50.836;4.430;2023-12-20T19:34:59;100835.53;;;12.69;83.41
27980;BME280;15315;50.836;4.430;2023-12-20T19:45:01;100817.19;;;12.61;83.26
27980;BME280;15315;50.836;4.430;2023-12-20T19:55:02;100801.41;;;13.12;82.46
27980;BME280;15315;50.836;4.430;2023-12-20T20:05:03;100773.75;;;13.09;81.71
27980;BME280;15315;50.836;4.430;2023-12-20T20:15:04;100744.97;;;12.96;82.88
27980;BME280;15315;50.836;4.430;2023-12-20T20:25:05;100742.25;;;12.40;84.30
27980;BME280;15315;50.836;4.430;2023-12-20T20:35:06;100749.25;;;12.42;83.95
27980;BME280;15315;50.836;4.430;2023-12-20T20:45:07;100733.13;;;12.75;86.92
27980;BME280;15315;50.836;4.430;2023-12-20T20:55:08;100733.03;;;12.99;85.29
27980;BME280;15315;50.836;4.430;2023-12-20T21:05:08;100721.94;;;13.24;84.43
27980;BME280;15315;50.836;4.430;2023-12-20T21:15:09;100713.81;;;12.80;86.74
27980;BME280;15315;50.836;4.430;2023-12-20T21:25:14;100697.59;;;12.91;90.49
27980;BME280;15315;50.836;4.430;2023-12-20T21:35:14;100692.31;;;13.01;92.87
27980;BME280;15315;50.836;4.430;2023-12-20T21:45:15;100660.66;;;13.23;91.04
27980;BME280;15315;50.836;4.430;2023-12-20T21:55:15;100670.09;;;12.29;100.00
27980;BME280;15315;50.836;4.430;2023-12-20T22:05:16;100635.97;;;12.61;100.00
27980;BME280;15315;50.836;4.430;2023-12-20T22:15:16;100651.91;;;12.31;100.00
27980;BME280;15315;50.836;4.430;2023-12-20T22:25:18;100649.75;;;12.58;100.00
27980;BME280;15315;50.836;4.430;2023-12-20T22:35:18;100645.56;;;12.76;98.29
27980;BME280;15315;50.836;4.430;2023-12-20T22:45:20;100647.25;;;13.22;94.41
27980;BME280;15315;50.836;4.430;2023-12-20T22:55:20;100648.13;;;13.00;95.10
27980;BME280;15315;50.836;4.430;2023-12-20T23:05:20;100645.09;;;12.93;93.64
27980;BME280;15315;50.836;4.430;2023-12-20T23:15:21;100627.94;;;13.15;91.64
27980;BME280;15315;50.836;4.430;2023-12-20T23:25:22;100607.16;;;13.05;92.22
27980;BME280;15315;50.836;4.430;2023-12-20T23:35:23;100612.13;;;13.42;90.07
27980;BME280;15315;50.836;4.430;2023-12-20T23:45:25;100590.72;;;13.39;88.56
27980;BME280;15315;50.836;4.430;2023-12-20T23:55:25;100577.59;;;13.55;88.87
